createdAt,value
2023-05-14T00:17:45.103Z,92.04
2023-05-14T00:20:12.462Z,92.31
2023-05-14T00:22:39.873Z,92.36
2023-05-14T00:25:07.689Z,92.19
2023-05-14T00:27:34.492Z,92.13
2023-05-14T00:30:01.149Z,91.33
2023-05-14T00:32:27.793Z,91.81
2023-05-14T00:34:54.496Z,91.99
2023-05-14T00:37:23.732Z,92.00
2023-05-14T00:39:50.361Z,92.12
2023-05-14T00:42:16.981Z,91.82
2023-05-14T00:44:43.545Z,91.98
2023-05-14T00:47:10.153Z,91.74
2023-05-14T00:49:36.896Z,92.07
2023-05-14T00:52:03.712Z,91.80
2023-05-14T00:54:30.674Z,91.83
2023-05-14T00:56:57.355Z,92.36
2023-05-14T00:59:23.944Z,92.42
2023-05-14T01:01:51.195Z,92.78
2023-05-14T01:04:18.048Z,93.09
2023-05-14T01:06:56.487Z,93.26
2023-05-14T01:09:32.614Z,93.54
2023-05-14T01:12:27.560Z,92.95
2023-05-14T01:15:15.465Z,92.42
2023-05-14T01:17:48.844Z,92.01
2023-05-14T01:20:15.632Z,92.31
2023-05-14T01:22:42.730Z,92.41
2023-05-14T01:25:09.704Z,92.37
2023-05-14T01:27:43.671Z,92.69
2023-05-14T01:30:22.305Z,93.61
2023-05-14T01:32:53.831Z,93.72
2023-05-14T01:35:24.648Z,93.24
2023-05-14T01:37:52.195Z,93.23
2023-05-14T01:40:19.411Z,92.80
2023-05-14T01:42:45.995Z,92.88
2023-05-14T01:45:12.686Z,93.01
2023-05-14T01:47:39.297Z,92.68
2023-05-14T01:50:06.436Z,92.89
2023-05-14T01:52:34.415Z,92.40
2023-05-14T01:55:01.328Z,92.59
2023-05-14T01:57:29.244Z,92.57
2023-05-14T01:59:55.746Z,92.21
2023-05-14T02:02:22.403Z,92.23
2023-05-14T02:04:50.885Z,92.87
2023-05-14T02:07:17.438Z,92.26
2023-05-14T02:09:44.177Z,92.06
2023-05-14T02:12:11.824Z,92.30
2023-05-14T02:14:38.957Z,92.10
2023-05-14T02:17:05.960Z,91.53
2023-05-14T02:19:32.559Z,91.71
2023-05-14T02:22:00.140Z,92.17
2023-05-14T02:24:27.171Z,92.28
2023-05-14T02:26:53.840Z,92.08
2023-05-14T02:29:20.584Z,92.05
2023-05-14T02:31:47.196Z,91.36
2023-05-14T02:34:13.793Z,91.77
2023-05-14T02:36:40.385Z,91.76
2023-05-14T02:39:06.955Z,92.64
2023-05-14T02:41:33.528Z,93.41
2023-05-14T02:44:00.157Z,92.79
2023-05-14T02:46:27.043Z,92.80
2023-05-14T02:48:53.666Z,92.99
2023-05-14T02:51:21.569Z,92.72
2023-05-14T02:53:48.154Z,93.01
2023-05-14T02:56:14.973Z,92.66
2023-05-14T02:58:41.788Z,92.53
2023-05-14T03:01:08.919Z,92.52
2023-05-14T03:03:38.428Z,92.80
2023-05-14T03:06:06.030Z,92.56
2023-05-14T03:08:32.595Z,92.32
2023-05-14T03:10:59.187Z,92.32
2023-05-14T03:13:25.904Z,92.63
2023-05-14T03:15:55.130Z,92.85
2023-05-14T03:18:22.794Z,92.65
2023-05-14T03:20:49.368Z,92.23
2023-05-14T03:23:16.088Z,92.42
2023-05-14T03:25:42.677Z,92.55
2023-05-14T03:28:09.913Z,92.52
2023-05-14T03:30:36.651Z,92.64
2023-05-14T03:33:03.453Z,92.62
2023-05-14T03:35:30.474Z,92.97
2023-05-14T03:37:59.372Z,92.55
2023-05-14T03:40:26.415Z,93.49
2023-05-14T03:42:53.073Z,94.17
2023-05-14T03:45:19.747Z,93.96
2023-05-14T03:47:46.375Z,93.86
2023-05-14T03:50:13.467Z,93.76
2023-05-14T03:52:40.750Z,94.01
2023-05-14T03:55:07.646Z,93.87
2023-05-14T03:57:34.230Z,93.54
2023-05-14T04:00:01.010Z,93.79
2023-05-14T04:02:27.659Z,93.76
2023-05-14T04:04:54.670Z,93.75
2023-05-14T04:07:21.339Z,94.21
2023-05-14T04:09:47.921Z,94.55
2023-05-14T04:12:14.513Z,94.56
2023-05-14T04:14:41.320Z,94.38
2023-05-14T04:17:07.890Z,94.16
2023-05-14T04:19:34.601Z,93.69
2023-05-14T04:22:01.293Z,94.03
2023-05-14T04:24:27.896Z,94.12
2023-05-14T04:26:54.531Z,94.02
2023-05-14T04:29:21.217Z,93.74
2023-05-14T04:31:49.683Z,93.58
2023-05-14T04:34:16.324Z,94.15
2023-05-14T04:36:42.929Z,94.50
2023-05-14T04:39:10.044Z,94.21
2023-05-14T04:41:36.954Z,94.07
2023-05-14T04:44:03.652Z,93.97
2023-05-14T04:46:30.556Z,93.43
2023-05-14T04:48:57.826Z,92.88
2023-05-14T04:51:24.566Z,92.58
2023-05-14T04:53:51.112Z,92.95
2023-05-14T04:56:17.832Z,93.24
2023-05-14T04:58:44.455Z,92.43
2023-05-14T05:01:11.168Z,91.90
2023-05-14T05:03:39.688Z,91.54
2023-05-14T05:06:06.834Z,91.78
2023-05-14T05:08:33.441Z,91.81
2023-05-14T05:11:00.467Z,91.27
2023-05-14T05:13:27.032Z,91.19
2023-05-14T05:15:53.705Z,90.87
2023-05-14T05:18:20.570Z,90.44
2023-05-14T05:20:47.234Z,90.10
2023-05-14T05:23:13.888Z,90.07
2023-05-14T05:25:40.447Z,90.00
2023-05-14T05:28:07.173Z,90.03
2023-05-14T05:30:33.914Z,90.39
2023-05-14T05:33:00.508Z,90.38
2023-05-14T05:35:27.303Z,90.31
2023-05-14T05:37:53.974Z,90.32
2023-05-14T05:40:20.612Z,90.15
2023-05-14T05:42:47.219Z,90.17
2023-05-14T05:45:13.983Z,90.12
2023-05-14T05:47:41.009Z,89.88
2023-05-14T05:50:08.203Z,89.80
2023-05-14T05:52:34.840Z,89.39
2023-05-14T05:55:04.269Z,89.09
2023-05-14T05:57:31.166Z,89.30
2023-05-14T05:59:58.444Z,89.41
2023-05-14T06:02:25.444Z,89.23
2023-05-14T06:04:53.312Z,89.23
2023-05-14T06:07:20.293Z,89.46
2023-05-14T06:09:47.341Z,89.14
2023-05-14T06:12:13.955Z,89.05
2023-05-14T06:14:40.657Z,89.10
2023-05-14T06:17:07.745Z,89.24
2023-05-14T06:19:34.409Z,89.21
2023-05-14T06:22:01.092Z,89.01
2023-05-14T06:24:27.679Z,88.92
2023-05-14T06:26:54.323Z,88.77
2023-05-14T06:33:40.868Z,88.32
2023-05-14T06:36:08.480Z,88.34
2023-05-14T06:38:35.795Z,88.32
2023-05-14T06:41:04.120Z,88.23
2023-05-14T06:43:30.798Z,88.04
2023-05-14T06:45:58.568Z,88.11
2023-05-14T06:48:28.533Z,87.58
2023-05-14T06:50:55.524Z,87.20
2023-05-14T06:53:22.357Z,86.96
2023-05-14T06:55:49.214Z,86.34
2023-05-14T06:58:15.973Z,86.11
2023-05-14T07:00:44.236Z,85.43
2023-05-14T07:03:11.001Z,85.00
2023-05-14T07:05:37.609Z,84.85
2023-05-14T07:08:04.399Z,84.27
2023-05-14T07:10:31.114Z,83.70
2023-05-14T07:12:57.772Z,83.19
2023-05-14T07:15:24.394Z,82.80
2023-05-14T07:17:51.109Z,82.58
2023-05-14T07:20:17.814Z,82.20
2023-05-14T07:22:44.414Z,81.39
2023-05-14T07:25:11.113Z,80.53
2023-05-14T07:27:37.682Z,81.14
2023-05-14T07:30:04.586Z,80.13
2023-05-14T07:32:32.025Z,79.21
2023-05-14T07:34:59.033Z,78.52
2023-05-14T07:37:26.649Z,78.15
2023-05-14T07:39:53.949Z,77.53
2023-05-14T07:42:34.389Z,77.49
2023-05-14T07:45:02.483Z,75.54
2023-05-14T07:47:29.979Z,74.38
2023-05-14T07:49:57.506Z,73.34
2023-05-14T07:52:24.673Z,74.22
2023-05-14T07:54:52.140Z,73.33
2023-05-14T07:57:19.501Z,72.99
2023-05-14T07:59:46.651Z,72.52
2023-05-14T08:02:14.206Z,71.04
2023-05-14T08:04:41.179Z,69.07
2023-05-14T08:07:08.703Z,68.37
2023-05-14T08:09:35.425Z,66.90
2023-05-14T08:12:02.196Z,66.92
2023-05-14T08:14:29.025Z,64.72
2023-05-14T08:16:55.752Z,63.68
2023-05-14T08:19:23.380Z,63.55
2023-05-14T08:21:50.012Z,62.91
2023-05-14T08:24:16.577Z,62.46
2023-05-14T08:26:43.462Z,60.62
2023-05-14T08:29:11.567Z,61.40
2023-05-14T08:31:42.334Z,60.56
2023-05-14T08:34:08.902Z,61.01
2023-05-14T08:36:35.717Z,59.97
2023-05-14T08:39:02.401Z,59.15
2023-05-14T08:41:29.237Z,57.84
2023-05-14T08:44:13.423Z,56.95
2023-05-14T08:46:40.938Z,56.30
2023-05-14T08:49:23.204Z,55.96
2023-05-14T08:51:50.198Z,56.44
2023-05-14T08:54:18.056Z,57.15
2023-05-14T08:56:50.515Z,56.78
2023-05-14T08:59:18.336Z,56.56
2023-05-14T09:01:50.469Z,56.28
2023-05-14T09:04:20.742Z,55.17
2023-05-14T09:06:49.718Z,56.54
2023-05-14T09:09:16.616Z,54.99
2023-05-14T09:11:46.744Z,54.06
2023-05-14T09:14:13.598Z,53.37
2023-05-14T09:16:42.942Z,52.76
2023-05-14T09:19:09.713Z,53.58
2023-05-14T09:21:37.307Z,52.37
2023-05-14T09:24:04.144Z,53.11
2023-05-14T09:26:33.054Z,53.22
2023-05-14T09:29:04.733Z,53.36
2023-05-14T09:31:33.233Z,54.74
2023-05-14T09:34:00.924Z,53.95
2023-05-14T09:36:27.568Z,52.54
2023-05-14T09:38:57.003Z,52.77
2023-05-14T09:41:23.769Z,53.18
2023-05-14T09:43:51.614Z,54.41
2023-05-14T09:46:18.538Z,55.53
2023-05-14T09:48:49.166Z,55.00
2023-05-14T09:51:21.109Z,54.62
2023-05-14T09:53:48.043Z,53.89
2023-05-14T09:56:14.828Z,53.27
2023-05-14T09:58:41.385Z,54.64
2023-05-14T10:01:08.413Z,55.91
2023-05-14T10:03:36.132Z,54.91
2023-05-14T10:06:06.568Z,53.92
2023-05-14T10:08:38.725Z,51.19
2023-05-14T10:11:10.170Z,49.97
2023-05-14T10:13:42.691Z,49.64
2023-05-14T10:16:21.966Z,49.57
2023-05-14T10:18:54.168Z,50.57
2023-05-14T10:21:23.107Z,49.81
2023-05-14T10:23:50.595Z,49.05
2023-05-14T10:26:17.214Z,51.24
2023-05-14T10:28:44.328Z,52.19
2023-05-14T10:31:11.087Z,51.59
2023-05-14T10:33:50.486Z,51.08
2023-05-14T10:36:18.595Z,52.50
2023-05-14T10:38:45.473Z,52.74
2023-05-14T10:41:18.159Z,53.91
2023-05-14T10:43:44.978Z,54.51
2023-05-14T10:46:13.610Z,56.20
2023-05-14T10:48:43.260Z,55.89
2023-05-14T10:51:11.248Z,55.50
2023-05-14T10:53:40.758Z,56.35
2023-05-14T10:56:10.154Z,56.24
2023-05-14T10:58:42.432Z,54.93
2023-05-14T11:01:11.143Z,55.16
2023-05-14T11:03:43.137Z,55.11
2023-05-14T11:06:11.605Z,55.83
2023-05-14T11:08:38.997Z,56.22
2023-05-14T11:11:06.551Z,55.51
2023-05-14T11:13:34.725Z,55.31
2023-05-14T11:16:15.064Z,55.34
2023-05-14T11:18:54.221Z,55.05
2023-05-14T11:21:20.910Z,55.38
2023-05-14T11:23:48.341Z,54.05
2023-05-14T11:26:14.893Z,54.61
2023-05-14T11:28:41.668Z,53.24
2023-05-14T11:31:08.291Z,52.52
2023-05-14T11:33:36.270Z,52.49
2023-05-14T11:36:02.965Z,52.97
2023-05-14T11:38:29.594Z,53.44
2023-05-14T11:40:57.307Z,52.42
2023-05-14T11:43:24.984Z,51.43
2023-05-14T11:45:53.467Z,51.19
2023-05-14T11:48:21.241Z,49.97
2023-05-14T11:50:49.076Z,49.47
2023-05-14T11:53:33.544Z,47.82
2023-05-14T11:56:00.361Z,48.90
2023-05-14T11:58:28.486Z,48.75
2023-05-14T12:00:55.918Z,50.12
2023-05-14T12:03:26.750Z,50.21
2023-05-14T12:05:58.191Z,49.64
2023-05-14T12:08:31.996Z,50.99
2023-05-14T12:11:00.389Z,51.81
2023-05-14T12:13:30.953Z,51.33
2023-05-14T12:16:02.179Z,50.50
2023-05-14T12:18:32.622Z,44.53
2023-05-14T12:21:03.634Z,43.10
2023-05-14T12:23:31.335Z,41.91
2023-05-14T12:26:08.900Z,42.16
2023-05-14T12:28:38.520Z,42.29
2023-05-14T12:31:05.640Z,41.43
2023-05-14T12:33:32.369Z,38.89
2023-05-14T12:36:17.599Z,39.12
2023-05-14T12:38:49.130Z,38.42
2023-05-14T12:41:15.868Z,38.28
2023-05-14T12:43:48.210Z,37.26
2023-05-14T12:46:15.107Z,36.41
2023-05-14T12:48:41.660Z,36.35
2023-05-14T12:51:08.262Z,37.27
2023-05-14T12:53:35.467Z,36.77
2023-05-14T12:56:02.106Z,36.82
2023-05-14T12:58:28.824Z,37.69
2023-05-14T13:00:58.157Z,38.31
2023-05-14T13:03:25.324Z,37.71
2023-05-14T13:05:52.527Z,37.50
2023-05-14T13:08:21.643Z,39.07
2023-05-14T13:10:48.339Z,39.99
2023-05-14T13:13:15.914Z,39.80
2023-05-14T13:15:42.805Z,37.96
2023-05-14T13:18:09.562Z,37.27
2023-05-14T13:20:36.655Z,36.71
2023-05-14T13:23:03.366Z,35.59
2023-05-14T13:25:29.963Z,36.04
2023-05-14T13:27:56.642Z,37.41
2023-05-14T13:30:23.426Z,36.06
2023-05-14T13:32:50.086Z,35.57
2023-05-14T13:35:17.045Z,36.01
2023-05-14T13:37:44.619Z,36.14
2023-05-14T13:40:11.747Z,35.52
2023-05-14T13:42:39.960Z,35.33
2023-05-14T13:45:07.183Z,35.66
2023-05-14T13:47:33.965Z,34.97
2023-05-14T13:50:00.713Z,35.11
2023-05-14T13:52:27.401Z,36.02
2023-05-14T13:54:54.009Z,37.18
2023-05-14T13:57:22.212Z,36.68
2023-05-14T13:59:49.381Z,37.89
2023-05-14T14:02:15.931Z,38.55
2023-05-14T14:04:42.542Z,39.19
2023-05-14T14:07:09.349Z,39.71
2023-05-14T14:09:37.036Z,40.41
2023-05-14T14:12:04.882Z,40.47
2023-05-14T14:14:31.761Z,40.05
2023-05-14T14:16:58.472Z,39.46
2023-05-14T14:19:25.144Z,39.36
2023-05-14T14:21:51.736Z,39.61
2023-05-14T14:24:18.285Z,39.18
2023-05-14T14:26:44.985Z,37.91
2023-05-14T14:29:11.536Z,35.39
2023-05-14T14:31:38.147Z,36.79
2023-05-14T14:34:05.744Z,37.70
2023-05-14T14:36:32.436Z,39.01
2023-05-14T14:38:59.096Z,38.27
2023-05-14T14:41:26.815Z,38.32
2023-05-14T14:43:53.522Z,38.78
2023-05-14T14:46:20.175Z,39.22
2023-05-14T14:48:46.892Z,39.03
2023-05-14T14:51:13.777Z,38.28
2023-05-14T14:53:40.725Z,40.37
2023-05-14T14:56:07.547Z,41.34
2023-05-14T14:58:34.226Z,40.41
2023-05-14T15:01:01.504Z,42.03
2023-05-14T15:03:28.290Z,40.74
2023-05-14T15:05:54.972Z,38.70
2023-05-14T15:08:29.867Z,38.51
2023-05-14T15:10:56.981Z,38.08
2023-05-14T15:13:24.853Z,38.28
2023-05-14T15:15:52.707Z,38.41
2023-05-14T15:18:19.631Z,39.19
2023-05-14T15:20:46.336Z,38.87
2023-05-14T15:23:12.998Z,39.71
2023-05-14T15:25:39.703Z,38.50
2023-05-14T15:28:07.658Z,38.45
2023-05-14T15:30:34.327Z,37.73
2023-05-14T15:33:03.809Z,38.52
2023-05-14T15:35:30.492Z,40.67
2023-05-14T15:37:59.636Z,40.38
2023-05-14T15:40:27.650Z,41.03
2023-05-14T15:42:54.553Z,41.06
2023-05-14T15:45:21.304Z,42.96
2023-05-14T15:47:47.944Z,44.18
2023-05-14T15:50:14.534Z,44.48
2023-05-14T15:52:41.620Z,45.74
2023-05-14T15:55:08.854Z,44.38
2023-05-14T15:57:35.476Z,43.75
2023-05-14T16:00:09.918Z,43.78
2023-05-14T16:02:37.840Z,43.76
2023-05-14T16:05:05.088Z,43.60
2023-05-14T16:07:31.716Z,42.66
2023-05-14T16:09:58.315Z,41.91
2023-05-14T16:12:25.048Z,41.52
2023-05-14T16:14:52.810Z,41.45
2023-05-14T16:17:19.503Z,41.36
2023-05-14T16:19:46.142Z,41.34
2023-05-14T16:22:12.687Z,41.46
2023-05-14T16:24:39.415Z,41.59
2023-05-14T16:29:32.661Z,42.40
2023-05-14T16:31:59.386Z,42.98
2023-05-14T16:34:26.012Z,43.46
2023-05-14T16:36:52.630Z,43.45
2023-05-14T16:39:19.442Z,43.72
2023-05-14T16:41:46.093Z,44.07
2023-05-14T16:44:12.650Z,44.95
2023-05-14T16:46:39.508Z,45.91
2023-05-14T16:49:06.220Z,46.49
2023-05-14T16:51:33.044Z,48.23
2023-05-14T16:53:59.788Z,48.53
2023-05-14T16:56:26.864Z,47.86
2023-05-14T16:58:53.558Z,48.03
2023-05-14T17:01:20.236Z,47.89
2023-05-14T17:03:46.895Z,47.82
2023-05-14T17:06:13.527Z,48.41
2023-05-14T17:08:40.131Z,48.06
2023-05-14T17:11:06.807Z,46.14
2023-05-14T17:13:34.106Z,46.69
2023-05-14T17:16:01.254Z,46.77
2023-05-14T17:18:28.359Z,47.57
2023-05-14T17:20:56.468Z,47.71
2023-05-14T17:23:23.040Z,47.40
2023-05-14T17:25:50.012Z,46.83
2023-05-14T17:28:16.737Z,47.01
2023-05-14T17:30:43.959Z,47.54
2023-05-14T17:33:11.894Z,47.10
2023-05-14T17:35:38.981Z,47.75
2023-05-14T17:38:05.869Z,48.52
2023-05-14T17:40:33.316Z,48.52
2023-05-14T17:42:59.846Z,49.34
2023-05-14T17:45:27.043Z,49.97
2023-05-14T17:47:53.885Z,50.76
2023-05-14T17:50:20.601Z,51.82
2023-05-14T17:52:48.523Z,52.35
2023-05-14T17:58:41.715Z,53.40
2023-05-14T18:01:08.831Z,53.87
2023-05-14T18:03:35.769Z,53.99
2023-05-14T18:06:02.416Z,54.15
2023-05-14T18:08:29.034Z,54.26
2023-05-14T18:10:55.687Z,54.50
2023-05-14T18:13:22.362Z,54.88
2023-05-14T18:15:49.025Z,55.08
2023-05-14T18:18:19.204Z,55.39
2023-05-14T18:20:46.010Z,55.52
2023-05-14T18:23:12.895Z,55.67
2023-05-14T18:25:39.668Z,55.21
2023-05-14T18:28:06.765Z,55.13
2023-05-14T18:30:33.528Z,55.58
2023-05-14T18:33:00.275Z,56.06
2023-05-14T18:35:27.984Z,56.54
2023-05-14T18:37:55.112Z,56.54
2023-05-14T18:40:21.871Z,57.16
2023-05-14T18:42:48.527Z,57.53
2023-05-14T18:45:15.407Z,57.61
2023-05-14T18:47:42.077Z,58.21
2023-05-14T18:50:09.146Z,57.99
2023-05-14T18:52:35.800Z,58.76
2023-05-14T18:55:02.419Z,58.70
2023-05-14T18:57:34.936Z,58.82
2023-05-14T19:00:02.187Z,58.68
2023-05-14T19:02:29.008Z,58.89
2023-05-14T19:04:56.234Z,59.01
2023-05-14T19:07:23.118Z,58.99
2023-05-14T19:09:49.842Z,59.11
2023-05-14T19:12:16.615Z,59.04
2023-05-14T19:14:44.262Z,58.55
2023-05-14T19:17:11.193Z,58.06
2023-05-14T19:19:39.409Z,58.57
2023-05-14T19:22:06.573Z,59.02
2023-05-14T19:24:33.247Z,59.47
2023-05-14T19:26:59.882Z,59.81
2023-05-14T19:29:26.504Z,60.02
2023-05-14T19:31:53.212Z,59.83
2023-05-14T19:34:20.024Z,59.93
2023-05-14T19:36:46.961Z,59.61
2023-05-14T19:39:13.575Z,59.62
2023-05-14T19:41:40.216Z,60.03
2023-05-14T19:44:06.805Z,59.93
2023-05-14T19:46:33.893Z,60.29
2023-05-14T19:49:00.536Z,59.75
2023-05-14T19:51:27.196Z,58.65
2023-05-14T19:53:53.876Z,58.80
2023-05-14T19:56:21.721Z,57.74
2023-05-14T19:58:48.384Z,57.38
2023-05-14T20:01:15.211Z,57.47
2023-05-14T20:03:42.027Z,57.60
2023-05-14T20:06:08.902Z,58.50
2023-05-14T20:08:36.497Z,58.94
2023-05-14T20:11:03.478Z,59.49
2023-05-14T20:13:36.282Z,59.51
2023-05-14T20:16:03.157Z,59.61
2023-05-14T20:18:31.124Z,60.02
2023-05-14T20:20:57.880Z,59.97
2023-05-14T20:23:24.523Z,60.30
2023-05-14T20:25:51.381Z,60.96
2023-05-14T20:28:18.028Z,61.69
2023-05-14T20:30:44.671Z,61.74
2023-05-14T20:33:13.066Z,62.19
2023-05-14T20:35:42.004Z,62.24
2023-05-14T20:38:09.323Z,62.48
2023-05-14T20:40:37.297Z,63.02
2023-05-14T20:43:03.890Z,63.11
2023-05-14T20:45:30.748Z,63.40
2023-05-14T20:47:57.457Z,63.70
2023-05-14T20:50:27.136Z,63.78
2023-05-14T20:52:54.259Z,64.06
2023-05-14T20:55:21.968Z,64.34
2023-05-14T20:57:49.781Z,64.01
2023-05-14T21:00:16.813Z,64.63
2023-05-14T21:02:43.584Z,64.47
2023-05-14T21:05:10.662Z,65.13
2023-05-14T21:07:37.547Z,66.02
2023-05-14T21:10:04.723Z,65.15
2023-05-14T21:12:31.414Z,65.55
2023-05-14T21:14:59.406Z,65.26
2023-05-14T21:17:26.419Z,65.96
2023-05-14T21:19:53.091Z,66.01
2023-05-14T21:22:19.697Z,66.20
2023-05-14T21:24:46.384Z,66.24
2023-05-14T21:27:12.993Z,66.87
2023-05-14T21:29:39.886Z,67.08
2023-05-14T21:32:07.132Z,67.49
2023-05-14T21:34:33.764Z,67.62
2023-05-14T21:37:02.476Z,67.71
2023-05-14T21:39:29.061Z,67.55
2023-05-14T21:41:55.832Z,67.71
2023-05-14T21:44:23.017Z,67.97
2023-05-14T21:46:49.951Z,68.29
2023-05-14T21:49:16.518Z,68.50
2023-05-14T21:51:43.090Z,68.33
2023-05-14T21:54:10.136Z,68.26
2023-05-14T21:56:37.331Z,69.03
2023-05-14T21:59:04.198Z,69.37
2023-05-14T22:01:32.559Z,69.67
2023-05-14T22:04:00.617Z,69.72
2023-05-14T22:06:27.556Z,70.03
2023-05-14T22:08:54.208Z,70.30
2023-05-14T22:11:21.976Z,70.98
2023-05-14T22:13:48.596Z,71.63
2023-05-14T22:16:15.182Z,71.71
2023-05-14T22:18:41.880Z,72.96
2023-05-14T22:21:08.504Z,73.23
2023-05-14T22:23:35.181Z,73.72
2023-05-14T22:26:01.828Z,73.13
2023-05-14T22:28:28.508Z,74.04
2023-05-14T22:30:56.551Z,74.66
2023-05-14T22:33:23.426Z,74.51
2023-05-14T22:35:50.023Z,75.07
2023-05-14T22:38:17.797Z,74.30
2023-05-14T22:40:44.665Z,74.82
2023-05-14T22:43:11.326Z,75.35
2023-05-14T22:45:37.945Z,75.24
2023-05-14T22:48:04.793Z,76.08
2023-05-14T22:50:31.438Z,77.61
2023-05-14T22:52:58.052Z,78.13
2023-05-14T22:55:24.925Z,78.50
2023-05-14T22:57:51.649Z,78.80
2023-05-14T23:00:18.381Z,78.37
2023-05-14T23:02:45.089Z,78.57
2023-05-14T23:05:12.157Z,77.85
2023-05-14T23:07:38.785Z,78.47
2023-05-14T23:10:05.919Z,79.34
2023-05-14T23:12:32.512Z,79.28
2023-05-14T23:14:59.345Z,79.38
2023-05-14T23:17:26.148Z,79.37
2023-05-14T23:19:53.046Z,79.47
2023-05-14T23:22:19.652Z,80.20
2023-05-14T23:24:47.440Z,81.37
2023-05-14T23:27:14.010Z,81.64
2023-05-14T23:29:40.641Z,81.54
2023-05-14T23:32:07.581Z,81.67
2023-05-14T23:34:34.820Z,81.74
2023-05-14T23:37:01.597Z,82.68
2023-05-14T23:39:28.341Z,83.11
2023-05-14T23:41:54.931Z,82.63
2023-05-14T23:44:21.683Z,83.22
2023-05-14T23:46:48.706Z,82.80
2023-05-14T23:49:15.368Z,82.58
2023-05-14T23:51:42.289Z,83.44
2023-05-14T23:54:08.885Z,83.09
2023-05-14T23:56:35.909Z,82.89
